createdAt,value
2018-03-11T00:00:49.542Z,19.30
2018-03-11T00:03:16.010Z,19.29
2018-03-11T00:05:42.177Z,19.30
2018-03-11T00:08:08.326Z,19.30
2018-03-11T00:10:34.824Z,19.31
2018-03-11T00:13:00.998Z,19.30
2018-03-11T00:15:27.592Z,19.32
2018-03-11T00:17:53.740Z,19.32
2018-03-11T00:20:19.931Z,19.33
2018-03-11T00:22:46.476Z,19.34
2018-03-11T00:25:12.645Z,19.34
2018-03-11T00:27:38.853Z,19.33
2018-03-11T00:30:05.034Z,19.31
2018-03-11T00:32:31.245Z,19.30
2018-03-11T00:34:57.407Z,19.32
2018-03-11T00:37:23.638Z,19.34
2018-03-11T00:39:49.862Z,19.34
2018-03-11T00:42:16.296Z,19.34
2018-03-11T00:44:42.734Z,19.32
2018-03-11T00:47:08.939Z,19.32
2018-03-11T00:49:35.124Z,19.34
2018-03-11T00:52:01.345Z,19.35
2018-03-11T00:54:27.851Z,19.34
2018-03-11T00:56:53.995Z,19.34
2018-03-11T00:59:20.226Z,19.33
2018-03-11T01:01:46.393Z,19.33
2018-03-11T01:04:12.865Z,19.34
2018-03-11T01:06:39.142Z,19.35
2018-03-11T01:09:05.305Z,19.35
2018-03-11T01:11:31.475Z,19.34
2018-03-11T01:13:57.700Z,19.35
2018-03-11T01:16:23.873Z,19.37
2018-03-11T01:18:50.334Z,19.36
2018-03-11T01:21:16.528Z,19.36
2018-03-11T01:23:42.729Z,19.35
2018-03-11T01:26:09.225Z,19.36
2018-03-11T01:28:35.660Z,19.38
2018-03-11T01:31:01.897Z,19.38
2018-03-11T01:33:28.061Z,19.38
2018-03-11T01:35:54.220Z,19.38
2018-03-11T01:38:20.441Z,19.39
2018-03-11T01:40:46.618Z,19.39
2018-03-11T01:43:12.824Z,19.39
2018-03-11T01:45:38.995Z,19.38
2018-03-11T01:48:05.482Z,19.40
2018-03-11T01:50:31.632Z,19.40
2018-03-11T01:53:07.516Z,19.42
2018-03-11T01:55:33.687Z,19.40
2018-03-11T01:57:59.853Z,19.41
2018-03-11T02:00:26.046Z,19.42
2018-03-11T02:02:52.211Z,19.39
2018-03-11T02:05:18.420Z,19.37
2018-03-11T02:07:44.588Z,19.38
2018-03-11T02:10:10.740Z,19.39
2018-03-11T02:12:36.938Z,19.38
2018-03-11T02:15:03.412Z,19.39
2018-03-11T02:17:29.610Z,19.40
2018-03-11T02:19:55.790Z,19.38
2018-03-11T02:22:21.979Z,19.38
2018-03-11T02:24:48.130Z,19.37
2018-03-11T02:27:14.331Z,19.36
2018-03-11T02:29:40.469Z,19.34
2018-03-11T02:32:06.619Z,19.35
2018-03-11T02:34:32.824Z,19.36
2018-03-11T02:36:58.971Z,19.37
2018-03-11T02:39:25.152Z,19.36
2018-03-11T02:41:51.379Z,19.36
2018-03-11T02:44:17.608Z,19.35
2018-03-11T02:46:43.774Z,19.35
2018-03-11T02:49:09.984Z,19.35
2018-03-11T02:51:36.151Z,19.34
2018-03-11T02:54:02.319Z,19.33
2018-03-11T02:56:28.517Z,19.36
2018-03-11T02:58:54.734Z,19.35
2018-03-11T03:01:20.956Z,19.36
2018-03-11T03:03:47.359Z,19.38
2018-03-11T03:06:13.794Z,19.38
2018-03-11T03:08:40.003Z,19.37
2018-03-11T03:11:06.459Z,19.38
2018-03-11T03:13:32.691Z,19.38
2018-03-11T03:15:58.859Z,19.37
2018-03-11T03:18:25.035Z,19.37
2018-03-11T03:20:51.251Z,19.38
2018-03-11T03:23:17.391Z,19.38
2018-03-11T03:25:43.824Z,19.37
2018-03-11T03:28:10.006Z,19.38
2018-03-11T03:30:36.175Z,19.37
2018-03-11T03:33:02.609Z,19.36
2018-03-11T03:35:28.776Z,19.35
2018-03-11T03:37:55.049Z,19.37
2018-03-11T03:40:21.212Z,19.37
2018-03-11T03:42:47.401Z,19.37
2018-03-11T03:45:13.631Z,19.38
2018-03-11T03:47:39.810Z,19.38
2018-03-11T03:50:05.983Z,19.40
2018-03-11T03:52:32.197Z,19.39
2018-03-11T03:54:58.418Z,19.39
2018-03-11T03:57:24.569Z,19.39
2018-03-11T03:59:50.730Z,19.40
2018-03-11T04:02:16.921Z,19.41
2018-03-11T04:04:43.374Z,19.40
2018-03-11T04:07:09.600Z,19.38
2018-03-11T04:09:35.749Z,19.39
2018-03-11T04:12:01.932Z,19.38
2018-03-11T04:14:28.107Z,19.37
2018-03-11T04:16:54.618Z,19.38
2018-03-11T04:19:21.148Z,19.38
2018-03-11T04:21:47.323Z,19.37
2018-03-11T04:24:13.811Z,19.38
2018-03-11T04:26:39.986Z,19.37
2018-03-11T04:29:06.470Z,19.37
2018-03-11T04:31:32.676Z,19.38
2018-03-11T04:33:58.825Z,19.38
2018-03-11T04:36:24.998Z,19.37
2018-03-11T04:38:51.487Z,19.40
2018-03-11T04:41:17.676Z,19.40
2018-03-11T04:43:43.860Z,19.40
2018-03-11T04:46:10.008Z,19.37
2018-03-11T04:48:36.186Z,19.37
2018-03-11T04:51:02.631Z,19.38
2018-03-11T04:53:28.867Z,19.38
2018-03-11T04:55:55.147Z,19.39
2018-03-11T04:58:21.319Z,19.38
2018-03-11T05:00:47.546Z,19.36
2018-03-11T05:03:13.718Z,19.35
2018-03-11T05:05:39.891Z,19.33
2018-03-11T05:08:06.099Z,19.36
2018-03-11T05:10:32.275Z,19.37
2018-03-11T05:12:58.451Z,19.39
2018-03-11T05:15:24.668Z,19.42
2018-03-11T05:17:50.850Z,19.43
2018-03-11T05:20:17.017Z,19.43
2018-03-11T05:22:43.195Z,19.44
2018-03-11T05:25:09.619Z,19.48
2018-03-11T05:27:35.813Z,19.48
2018-03-11T05:30:02.280Z,19.50
2018-03-11T05:32:28.514Z,19.51
2018-03-11T05:34:54.901Z,19.51
2018-03-11T05:37:21.067Z,19.52
2018-03-11T05:39:47.247Z,19.56
2018-03-11T05:42:13.728Z,19.56
2018-03-11T05:44:39.941Z,19.56
2018-03-11T05:47:06.096Z,19.56
2018-03-11T05:49:32.259Z,19.58
2018-03-11T05:51:58.446Z,19.57
2018-03-11T05:54:24.684Z,19.54
2018-03-11T05:56:50.832Z,19.55
2018-03-11T05:59:17.383Z,19.57
2018-03-11T06:01:43.599Z,19.57
2018-03-11T06:04:09.758Z,19.57
2018-03-11T06:06:35.982Z,19.57
2018-03-11T06:09:02.295Z,19.55
2018-03-11T06:11:28.451Z,19.53
2018-03-11T06:13:54.902Z,19.53
2018-03-11T06:16:21.051Z,19.51
2018-03-11T06:18:47.255Z,19.52
2018-03-11T06:21:13.402Z,19.49
2018-03-11T06:23:39.564Z,19.51
2018-03-11T06:26:05.767Z,19.51
2018-03-11T06:28:31.968Z,19.52
2018-03-11T06:30:58.136Z,19.52
2018-03-11T06:33:24.335Z,19.51
2018-03-11T06:35:50.499Z,19.52
2018-03-11T06:38:16.742Z,19.52
2018-03-11T06:40:42.900Z,19.52
2018-03-11T06:43:09.180Z,19.53
2018-03-11T06:45:35.344Z,19.54
2018-03-11T06:48:01.523Z,19.53
2018-03-11T06:50:27.759Z,19.54
2018-03-11T06:52:53.906Z,19.55
2018-03-11T06:55:20.303Z,19.56
2018-03-11T06:57:46.478Z,19.57
2018-03-11T07:00:12.666Z,19.57
2018-03-11T07:02:38.866Z,19.57
2018-03-11T07:05:05.051Z,19.57
2018-03-11T07:07:31.260Z,19.58
2018-03-11T07:09:57.526Z,19.60
2018-03-11T07:12:23.703Z,19.60
2018-03-11T07:14:49.911Z,19.60
2018-03-11T07:17:16.077Z,19.61
2018-03-11T07:19:42.277Z,19.62
2018-03-11T07:22:08.518Z,19.64
2018-03-11T07:24:34.763Z,19.63
2018-03-11T07:27:00.986Z,19.65
2018-03-11T07:29:27.174Z,19.64
2018-03-11T07:31:53.587Z,19.65
2018-03-11T07:34:19.803Z,19.64
2018-03-11T07:36:46.284Z,19.64
2018-03-11T07:39:12.462Z,19.66
2018-03-11T07:41:38.643Z,19.67
2018-03-11T07:44:04.891Z,19.69
2018-03-11T07:46:31.050Z,19.70
2018-03-11T07:48:57.222Z,19.69
2018-03-11T07:51:23.399Z,19.70
2018-03-11T07:53:49.597Z,19.72
2018-03-11T07:56:15.779Z,19.72
2018-03-11T07:58:42.015Z,19.72
2018-03-11T08:01:08.188Z,19.71
2018-03-11T08:03:34.341Z,19.72
2018-03-11T08:06:00.777Z,19.72
2018-03-11T08:08:26.928Z,19.73
2018-03-11T08:10:53.125Z,19.75
2018-03-11T08:13:19.267Z,19.75
2018-03-11T08:15:45.472Z,19.76
2018-03-11T08:18:11.916Z,19.78
2018-03-11T08:20:38.090Z,19.80
2018-03-11T08:23:04.295Z,19.82
2018-03-11T08:25:30.814Z,19.86
2018-03-11T08:27:57.042Z,19.91
2018-03-11T08:30:23.218Z,19.95
2018-03-11T08:32:55.380Z,19.99
2018-03-11T08:35:21.563Z,20.03
2018-03-11T08:37:47.743Z,20.05
2018-03-11T08:40:14.222Z,20.08
2018-03-11T08:42:40.443Z,20.12
2018-03-11T08:45:06.650Z,20.17
2018-03-11T08:47:32.798Z,20.21
2018-03-11T08:49:58.992Z,20.22
2018-03-11T08:52:25.148Z,20.24
2018-03-11T08:54:51.327Z,20.26
2018-03-11T08:57:17.488Z,20.28
2018-03-11T08:59:44.046Z,20.30
2018-03-11T09:02:10.473Z,20.31
2018-03-11T09:04:36.622Z,20.31
2018-03-11T09:07:02.819Z,20.30
2018-03-11T09:09:28.994Z,20.31
2018-03-11T09:11:55.221Z,20.31
2018-03-11T09:14:21.388Z,20.33
2018-03-11T09:16:47.564Z,20.34
2018-03-11T09:19:14.076Z,20.36
2018-03-11T09:21:40.364Z,20.38
2018-03-11T09:24:06.509Z,20.40
2018-03-11T09:26:32.754Z,20.42
2018-03-11T09:28:58.974Z,20.46
2018-03-11T09:31:25.181Z,20.49
2018-03-11T09:33:51.353Z,20.52
2018-03-11T09:36:17.548Z,20.56
2018-03-11T09:38:43.725Z,20.58
2018-03-11T09:41:09.921Z,20.60
2018-03-11T09:43:36.152Z,20.61
2018-03-11T09:46:02.372Z,20.63
2018-03-11T09:48:28.583Z,20.66
2018-03-11T09:50:54.755Z,20.68
2018-03-11T09:53:20.943Z,20.69
2018-03-11T09:55:47.145Z,20.69
2018-03-11T09:58:13.322Z,20.72
2018-03-11T10:00:39.567Z,20.74
2018-03-11T10:03:05.764Z,20.76
2018-03-11T10:05:31.954Z,20.78
2018-03-11T10:07:58.171Z,20.80
2018-03-11T10:10:24.661Z,20.81
2018-03-11T10:12:50.811Z,20.83
2018-03-11T10:15:16.993Z,20.85
2018-03-11T10:17:43.169Z,20.84
2018-03-11T10:20:09.354Z,20.86
2018-03-11T10:22:35.570Z,20.88
2018-03-11T10:25:01.760Z,20.90
2018-03-11T10:27:27.977Z,20.91
2018-03-11T10:29:54.164Z,20.92
2018-03-11T10:32:20.328Z,20.93
2018-03-11T10:34:46.507Z,20.95
2018-03-11T10:37:12.717Z,20.95
2018-03-11T10:39:38.907Z,20.96
2018-03-11T10:42:05.105Z,20.98
2018-03-11T10:44:31.374Z,21.00
2018-03-11T10:46:57.876Z,21.06
2018-03-11T10:49:24.418Z,21.09
2018-03-11T10:51:50.596Z,21.12
2018-03-11T10:54:16.754Z,21.14
2018-03-11T10:56:42.934Z,21.18
2018-03-11T10:59:09.124Z,21.21
2018-03-11T11:01:41.492Z,21.21
2018-03-11T11:04:10.760Z,21.23
2018-03-11T11:06:36.922Z,21.26
2018-03-11T11:09:03.212Z,21.28
2018-03-11T11:11:29.492Z,21.28
2018-03-11T11:13:55.976Z,21.27
2018-03-11T11:16:22.447Z,21.26
2018-03-11T11:18:48.622Z,21.26
2018-03-11T11:21:14.801Z,21.26
2018-03-11T11:23:40.998Z,21.26
2018-03-11T11:26:07.210Z,21.27
2018-03-11T11:28:33.390Z,21.30
2018-03-11T11:30:59.918Z,21.33
2018-03-11T11:33:26.139Z,21.35
2018-03-11T11:35:52.330Z,21.36
2018-03-11T11:38:18.550Z,21.41
2018-03-11T11:40:44.727Z,21.44
2018-03-11T11:43:10.978Z,21.47
2018-03-11T11:45:37.490Z,21.48
2018-03-11T11:48:03.654Z,21.49
2018-03-11T11:50:29.863Z,21.48
2018-03-11T11:52:56.027Z,21.49
2018-03-11T11:55:22.218Z,21.49
2018-03-11T11:57:48.734Z,21.52
2018-03-11T12:00:14.943Z,21.54
2018-03-11T12:02:41.127Z,21.55
2018-03-11T12:05:07.316Z,21.55
2018-03-11T12:07:33.559Z,21.55
2018-03-11T12:09:59.747Z,21.56
2018-03-11T12:12:25.898Z,21.54
2018-03-11T12:14:52.097Z,21.51
2018-03-11T12:17:18.314Z,21.46
2018-03-11T12:19:44.534Z,21.43
2018-03-11T12:22:10.708Z,21.42
2018-03-11T12:24:36.958Z,21.41
2018-03-11T12:27:03.148Z,21.39
2018-03-11T12:29:29.563Z,21.37
2018-03-11T12:31:55.783Z,21.33
2018-03-11T12:34:22.040Z,21.29
2018-03-11T12:36:48.220Z,21.24
2018-03-11T12:39:14.414Z,21.23
2018-03-11T12:41:40.598Z,21.27
2018-03-11T12:44:06.810Z,21.29
2018-03-11T12:46:33.073Z,21.30
2018-03-11T12:48:59.238Z,21.29
2018-03-11T12:51:25.465Z,21.26
2018-03-11T12:53:51.713Z,21.23
2018-03-11T12:56:18.126Z,21.19
2018-03-11T12:58:44.375Z,21.14
2018-03-11T13:01:10.582Z,21.12
2018-03-11T13:03:36.740Z,21.10
2018-03-11T13:06:02.983Z,21.10
2018-03-11T13:08:29.455Z,21.11
2018-03-11T13:10:55.663Z,21.13
2018-03-11T13:13:21.873Z,21.13
2018-03-11T13:15:48.071Z,21.13
2018-03-11T13:18:14.275Z,21.10
2018-03-11T13:20:52.939Z,21.07
2018-03-11T13:23:19.143Z,21.04
2018-03-11T13:25:45.335Z,21.06
2018-03-11T13:28:23.814Z,21.08
2018-03-11T13:30:50.251Z,21.10
2018-03-11T13:33:28.627Z,21.09
2018-03-11T13:35:54.851Z,21.07
2018-03-11T13:38:33.379Z,21.04
2018-03-11T13:40:59.596Z,21.00
2018-03-11T13:43:26.106Z,20.82
2018-03-11T13:46:04.830Z,20.92
2018-03-11T13:48:31.022Z,20.90
2018-03-11T13:50:57.235Z,20.88
2018-03-11T13:56:23.648Z,20.82
2018-03-11T13:58:49.840Z,20.81
2018-03-11T14:01:16.020Z,20.80
2018-03-11T14:03:42.255Z,20.79
2018-03-11T14:06:08.476Z,20.79
2018-03-11T14:08:34.648Z,20.79
2018-03-11T14:11:01.021Z,20.80
2018-03-11T14:13:27.403Z,20.81
2018-03-11T14:15:53.592Z,20.82
2018-03-11T14:18:19.902Z,20.82
2018-03-11T14:20:46.121Z,20.82
2018-03-11T14:23:12.312Z,20.84
2018-03-11T14:25:38.494Z,20.84
2018-03-11T14:28:04.733Z,20.83
2018-03-11T14:30:30.888Z,20.82
2018-03-11T14:32:57.067Z,20.84
2018-03-11T14:35:23.270Z,20.84
2018-03-11T14:37:49.687Z,20.83
2018-03-11T14:40:15.916Z,20.84
2018-03-11T14:42:42.093Z,20.83
2018-03-11T14:45:08.275Z,20.82
2018-03-11T14:47:34.841Z,20.81
2018-03-11T14:50:01.084Z,20.80
2018-03-11T14:52:27.339Z,20.82
2018-03-11T14:54:53.536Z,20.85
2018-03-11T14:57:19.740Z,20.87
2018-03-11T14:59:45.978Z,20.86
2018-03-11T15:02:12.153Z,20.86
2018-03-11T15:04:38.315Z,20.86
2018-03-11T15:07:04.785Z,20.92
2018-03-11T15:12:02.715Z,20.97
2018-03-11T15:14:29.287Z,20.98
2018-03-11T15:16:55.455Z,20.99
2018-03-11T15:19:21.610Z,20.97
2018-03-11T15:21:47.832Z,20.95
2018-03-11T15:24:14.027Z,20.94
2018-03-11T15:26:40.284Z,20.91
2018-03-11T15:29:06.858Z,20.90
2018-03-11T15:31:33.042Z,20.89
2018-03-11T15:33:59.216Z,20.88
2018-03-11T15:36:25.407Z,20.87
2018-03-11T15:38:51.871Z,20.86
2018-03-11T15:41:18.073Z,20.85
2018-03-11T15:43:44.312Z,20.83
2018-03-11T15:46:10.498Z,20.83
2018-03-11T15:48:36.675Z,20.82
2018-03-11T15:51:02.903Z,20.82
2018-03-11T15:53:35.128Z,20.82
2018-03-11T15:56:01.393Z,20.81
2018-03-11T15:58:27.586Z,20.81
2018-03-11T16:00:53.838Z,20.78
2018-03-11T16:03:20.015Z,20.76
2018-03-11T16:05:46.186Z,20.72
2018-03-11T16:08:12.388Z,20.69
2018-03-11T16:10:38.583Z,20.67
2018-03-11T16:13:04.804Z,20.65
2018-03-11T16:15:31.014Z,20.64
2018-03-11T16:17:57.563Z,20.62
2018-03-11T16:20:23.758Z,20.61
2018-03-11T16:22:50.008Z,20.62
2018-03-11T16:25:16.251Z,20.62
2018-03-11T16:27:42.455Z,20.60
2018-03-11T16:30:08.955Z,20.58
2018-03-11T16:32:35.163Z,20.55
2018-03-11T16:35:08.287Z,20.52
2018-03-11T16:37:34.450Z,20.51
2018-03-11T16:40:00.677Z,20.50
2018-03-11T16:42:26.908Z,20.50
2018-03-11T16:44:53.083Z,20.49
2018-03-11T16:47:19.285Z,20.49
2018-03-11T16:49:45.469Z,20.50
2018-03-11T16:52:11.714Z,20.50
2018-03-11T16:54:37.897Z,20.48
2018-03-11T16:57:04.090Z,20.47
2018-03-11T16:59:30.279Z,20.46
2018-03-11T17:01:56.469Z,20.46
2018-03-11T17:04:22.628Z,20.46
2018-03-11T17:06:48.839Z,20.45
2018-03-11T17:09:15.043Z,20.45
2018-03-11T17:11:41.494Z,20.44
2018-03-11T17:14:07.693Z,20.46
2018-03-11T17:16:33.864Z,20.45
2018-03-11T17:19:00.108Z,20.45
2018-03-11T17:21:26.563Z,20.44
2018-03-11T17:23:52.814Z,20.44
2018-03-11T17:26:18.994Z,20.44
2018-03-11T17:28:45.458Z,20.43
2018-03-11T17:31:11.719Z,20.43
2018-03-11T17:33:37.893Z,20.41
2018-03-11T17:36:04.075Z,20.39
2018-03-11T17:38:30.340Z,20.40
2018-03-11T17:40:56.538Z,20.39
2018-03-11T17:43:22.723Z,20.38
2018-03-11T17:45:49.252Z,20.37
2018-03-11T17:48:15.551Z,20.37
2018-03-11T17:50:41.743Z,20.36
2018-03-11T17:53:07.968Z,20.35
2018-03-11T17:55:34.194Z,20.35
2018-03-11T17:58:00.415Z,20.35
2018-03-11T18:00:26.600Z,20.34
2018-03-11T18:02:52.799Z,20.33
2018-03-11T18:05:19.237Z,20.33
2018-03-11T18:07:45.433Z,20.32
2018-03-11T18:10:11.663Z,20.30
2018-03-11T18:12:37.865Z,20.29
2018-03-11T18:15:04.401Z,20.30
2018-03-11T18:17:30.564Z,20.29
2018-03-11T18:19:56.743Z,20.29
2018-03-11T18:22:22.942Z,20.29
2018-03-11T18:24:49.121Z,20.27
2018-03-11T18:27:15.642Z,20.27
2018-03-11T18:29:41.841Z,20.27
2018-03-11T18:32:08.027Z,20.28
2018-03-11T18:34:34.247Z,20.29
2018-03-11T18:37:00.484Z,20.30
2018-03-11T18:39:26.642Z,20.31
2018-03-11T18:41:52.806Z,20.32
2018-03-11T18:44:19.029Z,20.30
2018-03-11T18:46:45.201Z,20.30
2018-03-11T18:49:11.449Z,20.30
2018-03-11T18:51:37.638Z,20.30
2018-03-11T18:54:03.799Z,20.29
2018-03-11T18:56:29.990Z,20.30
2018-03-11T18:58:56.207Z,20.30
2018-03-11T19:01:22.367Z,20.29
2018-03-11T19:03:48.686Z,20.29
2018-03-11T19:06:14.878Z,20.28
2018-03-11T19:08:41.061Z,20.28
2018-03-11T19:11:07.253Z,20.28
2018-03-11T19:13:33.876Z,20.28
2018-03-11T19:16:00.050Z,20.26
2018-03-11T19:18:26.251Z,20.26
2018-03-11T19:20:52.440Z,20.25
2018-03-11T19:23:18.888Z,20.25
2018-03-11T19:25:45.090Z,20.25
2018-03-11T19:28:11.555Z,20.25
2018-03-11T19:30:37.859Z,20.24
2018-03-11T19:33:04.020Z,20.25
2018-03-11T19:35:30.178Z,20.25
2018-03-11T19:37:56.380Z,20.26
2018-03-11T19:40:22.989Z,20.23
2018-03-11T19:42:49.219Z,20.23
2018-03-11T19:45:15.411Z,20.25
2018-03-11T19:47:41.645Z,20.25
2018-03-11T19:50:07.859Z,20.25
2018-03-11T19:52:34.011Z,20.25
2018-03-11T19:55:00.220Z,20.25
2018-03-11T19:57:26.402Z,20.23
2018-03-11T19:59:52.574Z,20.23
2018-03-11T20:02:18.802Z,20.24
2018-03-11T20:04:45.377Z,20.24
2018-03-11T20:07:11.818Z,20.23
2018-03-11T20:09:38.076Z,20.23
2018-03-11T20:12:04.266Z,20.23
2018-03-11T20:14:30.443Z,20.23
2018-03-11T20:16:56.695Z,20.23
2018-03-11T20:19:22.883Z,20.22
2018-03-11T20:21:49.074Z,20.21
2018-03-11T20:24:15.322Z,20.21
2018-03-11T20:26:41.575Z,20.19
2018-03-11T20:29:07.755Z,20.20
2018-03-11T20:31:33.935Z,20.20
2018-03-11T20:34:00.127Z,20.20
2018-03-11T20:36:26.302Z,20.18
2018-03-11T20:38:52.779Z,20.17
2018-03-11T20:41:18.939Z,20.16
2018-03-11T20:43:45.159Z,20.16
2018-03-11T20:46:11.326Z,20.16
2018-03-11T20:48:37.643Z,20.15
2018-03-11T20:51:03.846Z,20.13
2018-03-11T20:53:30.058Z,20.13
2018-03-11T20:55:56.236Z,20.13
2018-03-11T20:58:22.420Z,20.13
2018-03-11T21:00:48.631Z,20.13
2018-03-11T21:03:14.799Z,20.15
2018-03-11T21:05:41.027Z,20.15
2018-03-11T21:08:07.183Z,20.15
2018-03-11T21:10:33.647Z,20.14
2018-03-11T21:12:59.892Z,20.15
2018-03-11T21:15:26.063Z,20.14
2018-03-11T21:17:52.270Z,20.14
2018-03-11T21:20:18.428Z,20.14
2018-03-11T21:22:44.610Z,20.14
2018-03-11T21:25:10.828Z,20.14
2018-03-11T21:27:36.991Z,20.13
2018-03-11T21:30:03.574Z,20.10
2018-03-11T21:32:29.781Z,20.11
2018-03-11T21:34:55.987Z,20.10
2018-03-11T21:37:22.208Z,20.09
2018-03-11T21:39:48.609Z,20.08
2018-03-11T21:42:14.776Z,20.08
2018-03-11T21:44:40.964Z,20.08
2018-03-11T21:47:07.210Z,20.06
2018-03-11T21:49:33.459Z,20.06
2018-03-11T21:51:59.632Z,20.04
2018-03-11T21:54:25.809Z,20.02
2018-03-11T21:56:52.051Z,20.02
2018-03-11T21:59:18.207Z,20.02
2018-03-11T22:01:44.386Z,20.00
2018-03-11T22:04:10.603Z,20.00
2018-03-11T22:06:36.793Z,20.00
2018-03-11T22:09:03.080Z,19.98
2018-03-11T22:11:29.291Z,19.98
2018-03-11T22:13:55.494Z,19.99
2018-03-11T22:16:21.660Z,19.99
2018-03-11T22:18:47.849Z,19.99
2018-03-11T22:21:14.023Z,19.98
2018-03-11T22:23:40.229Z,19.97
2018-03-11T22:26:06.715Z,19.96
2018-03-11T22:28:32.870Z,19.95
2018-03-11T22:30:59.069Z,19.95
2018-03-11T22:33:25.307Z,19.94
2018-03-11T22:35:51.730Z,19.94
2018-03-11T22:38:17.910Z,19.94
2018-03-11T22:40:44.133Z,19.94
2018-03-11T22:43:10.620Z,19.93
2018-03-11T22:45:36.788Z,19.93
2018-03-11T22:48:02.979Z,19.92
2018-03-11T22:50:29.167Z,19.90
2018-03-11T22:52:55.366Z,19.89
2018-03-11T22:55:21.549Z,19.87
2018-03-11T22:57:47.806Z,19.88
2018-03-11T23:00:13.991Z,19.88
2018-03-11T23:02:40.158Z,19.87
2018-03-11T23:05:06.354Z,19.86
2018-03-11T23:07:32.534Z,19.86
2018-03-11T23:09:59.040Z,19.84
2018-03-11T23:12:25.460Z,19.83
2018-03-11T23:14:51.678Z,19.82
2018-03-11T23:17:17.854Z,19.81
2018-03-11T23:19:44.107Z,19.81
2018-03-11T23:22:10.313Z,19.82
2018-03-11T23:24:36.487Z,19.81
2018-03-11T23:27:02.667Z,19.80
2018-03-11T23:29:28.813Z,19.79
2018-03-11T23:31:55.244Z,19.78
2018-03-11T23:34:21.459Z,19.76
2018-03-11T23:36:47.611Z,19.76
2018-03-11T23:39:13.829Z,19.74
2018-03-11T23:41:39.996Z,19.75
2018-03-11T23:44:06.169Z,19.76
2018-03-11T23:46:32.372Z,19.75
2018-03-11T23:48:58.562Z,19.72
2018-03-11T23:51:24.789Z,19.74
2018-03-11T23:53:50.938Z,19.73
2018-03-11T23:56:17.140Z,19.72
2018-03-11T23:58:43.377Z,19.72
